sensor_id;sensor_type;location;lat;lon;timestamp;P1;durP1;ratioP1;P2;durP2;ratioP2
43626;SDS011;29217;52.586;13.442;2023-04-03T00:01:24;5.13;;;2.05;;
43626;SDS011;29217;52.586;13.442;2023-04-03T00:03:49;4.63;;;1.88;;
43626;SDS011;29217;52.586;13.442;2023-04-03T00:06:16;6.95;;;1.80;;
43626;SDS011;29217;52.586;13.442;2023-04-03T00:08:42;6.00;;;2.10;;
43626;SDS011;29217;52.586;13.442;2023-04-03T00:11:08;2.53;;;1.50;;
43626;SDS011;29217;52.586;13.442;2023-04-03T00:13:34;8.40;;;2.15;;
43626;SDS011;29217;52.586;13.442;2023-04-03T00:16:01;10.32;;;2.75;;
43626;SDS011;29217;52.586;13.442;2023-04-03T00:18:28;6.78;;;3.00;;
43626;SDS011;29217;52.586;13.442;2023-04-03T00:20:54;6.93;;;2.33;;
43626;SDS011;29217;52.586;13.442;2023-04-03T00:23:20;5.88;;;2.65;;
43626;SDS011;29217;52.586;13.442;2023-04-03T00:25:45;4.45;;;2.72;;
43626;SDS011;29217;52.586;13.442;2023-04-03T00:28:11;5.25;;;2.17;;
43626;SDS011;29217;52.586;13.442;2023-04-03T00:30:37;4.25;;;2.25;;
43626;SDS011;29217;52.586;13.442;2023-04-03T00:33:02;5.10;;;2.70;;
43626;SDS011;29217;52.586;13.442;2023-04-03T00:35:28;2.28;;;1.90;;
43626;SDS011;29217;52.586;13.442;2023-04-03T00:37:55;4.93;;;2.67;;
43626;SDS011;29217;52.586;13.442;2023-04-03T00:40:21;3.53;;;1.58;;
43626;SDS011;29217;52.586;13.442;2023-04-03T00:42:48;3.35;;;1.40;;
43626;SDS011;29217;52.586;13.442;2023-04-03T00:45:34;4.03;;;1.75;;
43626;SDS011;29217;52.586;13.442;2023-04-03T00:48:05;4.40;;;1.65;;
43626;SDS011;29217;52.586;13.442;2023-04-03T00:50:37;6.78;;;1.73;;
43626;SDS011;29217;52.586;13.442;2023-04-03T00:53:05;4.22;;;1.85;;
43626;SDS011;29217;52.586;13.442;2023-04-03T00:55:33;13.75;;;4.30;;
43626;SDS011;29217;52.586;13.442;2023-04-03T00:58:01;21.15;;;6.97;;
43626;SDS011;29217;52.586;13.442;2023-04-03T01:00:27;17.83;;;6.43;;
43626;SDS011;29217;52.586;13.442;2023-04-03T01:02:53;17.05;;;6.30;;
43626;SDS011;29217;52.586;13.442;2023-04-03T01:05:19;11.20;;;3.38;;
43626;SDS011;29217;52.586;13.442;2023-04-03T01:07:46;4.40;;;2.25;;
43626;SDS011;29217;52.586;13.442;2023-04-03T01:10:15;5.05;;;1.70;;
43626;SDS011;29217;52.586;13.442;2023-04-03T01:12:43;7.55;;;2.10;;
43626;SDS011;29217;52.586;13.442;2023-04-03T01:15:11;6.25;;;2.00;;
43626;SDS011;29217;52.586;13.442;2023-04-03T01:25:27;5.63;;;1.73;;
43626;SDS011;29217;52.586;13.442;2023-04-03T01:27:53;5.30;;;1.88;;
43626;SDS011;29217;52.586;13.442;2023-04-03T01:30:19;6.18;;;1.40;;
43626;SDS011;29217;52.586;13.442;2023-04-03T01:32:46;5.43;;;2.47;;
43626;SDS011;29217;52.586;13.442;2023-04-03T01:35:12;7.63;;;2.25;;
43626;SDS011;29217;52.586;13.442;2023-04-03T01:37:38;5.28;;;1.83;;
43626;SDS011;29217;52.586;13.442;2023-04-03T01:40:03;3.53;;;1.80;;
43626;SDS011;29217;52.586;13.442;2023-04-03T01:42:31;4.30;;;1.98;;
43626;SDS011;29217;52.586;13.442;2023-04-03T01:44:57;3.35;;;2.00;;
43626;SDS011;29217;52.586;13.442;2023-04-03T01:47:23;4.53;;;1.60;;
43626;SDS011;29217;52.586;13.442;2023-04-03T01:49:48;1.67;;;1.55;;
43626;SDS011;29217;52.586;13.442;2023-04-03T01:52:14;3.55;;;1.90;;
43626;SDS011;29217;52.586;13.442;2023-04-03T01:54:39;4.45;;;1.95;;
43626;SDS011;29217;52.586;13.442;2023-04-03T01:57:05;6.82;;;1.80;;
43626;SDS011;29217;52.586;13.442;2023-04-03T01:59:31;3.55;;;1.55;;
43626;SDS011;29217;52.586;13.442;2023-04-03T02:01:56;5.32;;;2.08;;
43626;SDS011;29217;52.586;13.442;2023-04-03T02:04:22;3.38;;;1.98;;
43626;SDS011;29217;52.586;13.442;2023-04-03T02:06:47;8.85;;;2.05;;
43626;SDS011;29217;52.586;13.442;2023-04-03T02:09:13;8.50;;;2.53;;
43626;SDS011;29217;52.586;13.442;2023-04-03T02:11:38;5.97;;;2.90;;
43626;SDS011;29217;52.586;13.442;2023-04-03T02:14:04;4.72;;;2.13;;
43626;SDS011;29217;52.586;13.442;2023-04-03T02:16:30;5.43;;;1.92;;
43626;SDS011;29217;52.586;13.442;2023-04-03T02:18:56;6.95;;;1.70;;
43626;SDS011;29217;52.586;13.442;2023-04-03T02:21:22;5.38;;;1.85;;
43626;SDS011;29217;52.586;13.442;2023-04-03T02:23:48;9.82;;;2.15;;
43626;SDS011;29217;52.586;13.442;2023-04-03T02:26:15;2.50;;;1.63;;
43626;SDS011;29217;52.586;13.442;2023-04-03T02:28:41;5.20;;;2.10;;
43626;SDS011;29217;52.586;13.442;2023-04-03T02:31:08;11.20;;;1.80;;
43626;SDS011;29217;52.586;13.442;2023-04-03T02:33:35;2.90;;;1.85;;
43626;SDS011;29217;52.586;13.442;2023-04-03T02:36:02;12.05;;;2.63;;
43626;SDS011;29217;52.586;13.442;2023-04-03T02:38:29;3.33;;;1.80;;
43626;SDS011;29217;52.586;13.442;2023-04-03T02:41:02;5.22;;;1.90;;
43626;SDS011;29217;52.586;13.442;2023-04-03T02:43:28;3.03;;;1.67;;
43626;SDS011;29217;52.586;13.442;2023-04-03T02:45:54;6.45;;;1.80;;
43626;SDS011;29217;52.586;13.442;2023-04-03T02:48:20;5.07;;;1.80;;
43626;SDS011;29217;52.586;13.442;2023-04-03T02:50:45;3.10;;;1.83;;
43626;SDS011;29217;52.586;13.442;2023-04-03T02:53:11;5.78;;;2.10;;
43626;SDS011;29217;52.586;13.442;2023-04-03T02:55:36;2.75;;;2.08;;
43626;SDS011;29217;52.586;13.442;2023-04-03T02:58:02;10.63;;;2.05;;
43626;SDS011;29217;52.586;13.442;2023-04-03T03:00:28;9.93;;;2.42;;
43626;SDS011;29217;52.586;13.442;2023-04-03T03:02:54;3.97;;;2.00;;
43626;SDS011;29217;52.586;13.442;2023-04-03T03:05:20;3.35;;;2.20;;
43626;SDS011;29217;52.586;13.442;2023-04-03T03:07:45;2.03;;;1.83;;
43626;SDS011;29217;52.586;13.442;2023-04-03T03:10:11;5.18;;;1.70;;
43626;SDS011;29217;52.586;13.442;2023-04-03T03:12:36;3.78;;;1.85;;
43626;SDS011;29217;52.586;13.442;2023-04-03T03:15:02;3.30;;;2.08;;
43626;SDS011;29217;52.586;13.442;2023-04-03T03:17:28;5.47;;;2.20;;
43626;SDS011;29217;52.586;13.442;2023-04-03T03:19:53;4.88;;;2.25;;
43626;SDS011;29217;52.586;13.442;2023-04-03T03:22:19;3.28;;;1.80;;
43626;SDS011;29217;52.586;13.442;2023-04-03T03:24:45;4.88;;;2.15;;
43626;SDS011;29217;52.586;13.442;2023-04-03T03:27:10;3.40;;;2.38;;
43626;SDS011;29217;52.586;13.442;2023-04-03T03:29:37;4.60;;;1.98;;
43626;SDS011;29217;52.586;13.442;2023-04-03T03:32:02;5.85;;;2.28;;
43626;SDS011;29217;52.586;13.442;2023-04-03T03:34:28;5.18;;;1.70;;
43626;SDS011;29217;52.586;13.442;2023-04-03T03:36:54;6.00;;;1.85;;
43626;SDS011;29217;52.586;13.442;2023-04-03T03:39:20;5.85;;;1.95;;
43626;SDS011;29217;52.586;13.442;2023-04-03T03:41:46;6.15;;;2.25;;
43626;SDS011;29217;52.586;13.442;2023-04-03T03:44:12;4.65;;;2.45;;
43626;SDS011;29217;52.586;13.442;2023-04-03T03:46:37;8.02;;;1.80;;
43626;SDS011;29217;52.586;13.442;2023-04-03T03:49:03;8.43;;;2.40;;
43626;SDS011;29217;52.586;13.442;2023-04-03T03:51:29;2.72;;;1.75;;
43626;SDS011;29217;52.586;13.442;2023-04-03T03:53:54;4.82;;;2.42;;
43626;SDS011;29217;52.586;13.442;2023-04-03T03:56:20;6.20;;;2.47;;
43626;SDS011;29217;52.586;13.442;2023-04-03T03:58:46;7.65;;;1.85;;
43626;SDS011;29217;52.586;13.442;2023-04-03T04:01:11;5.90;;;2.45;;
43626;SDS011;29217;52.586;13.442;2023-04-03T04:03:37;5.53;;;2.30;;
43626;SDS011;29217;52.586;13.442;2023-04-03T04:06:03;5.20;;;2.25;;
43626;SDS011;29217;52.586;13.442;2023-04-03T04:08:29;3.70;;;2.13;;
43626;SDS011;29217;52.586;13.442;2023-04-03T04:10:54;5.75;;;2.20;;
43626;SDS011;29217;52.586;13.442;2023-04-03T04:13:20;6.70;;;2.42;;
43626;SDS011;29217;52.586;13.442;2023-04-03T04:15:46;5.50;;;2.10;;
43626;SDS011;29217;52.586;13.442;2023-04-03T04:18:11;2.92;;;2.45;;
43626;SDS011;29217;52.586;13.442;2023-04-03T04:20:37;4.07;;;1.52;;
43626;SDS011;29217;52.586;13.442;2023-04-03T04:23:02;6.18;;;2.55;;
43626;SDS011;29217;52.586;13.442;2023-04-03T04:25:28;2.88;;;2.03;;
43626;SDS011;29217;52.586;13.442;2023-04-03T04:27:53;7.07;;;2.10;;
43626;SDS011;29217;52.586;13.442;2023-04-03T04:30:19;6.53;;;2.13;;
43626;SDS011;29217;52.586;13.442;2023-04-03T04:32:45;10.35;;;2.75;;
43626;SDS011;29217;52.586;13.442;2023-04-03T04:35:10;4.28;;;1.90;;
43626;SDS011;29217;52.586;13.442;2023-04-03T04:37:36;3.67;;;2.10;;
43626;SDS011;29217;52.586;13.442;2023-04-03T04:40:02;4.45;;;2.10;;
43626;SDS011;29217;52.586;13.442;2023-04-03T04:42:28;6.45;;;2.13;;
43626;SDS011;29217;52.586;13.442;2023-04-03T04:44:53;4.35;;;2.05;;
43626;SDS011;29217;52.586;13.442;2023-04-03T04:47:19;3.30;;;1.80;;
43626;SDS011;29217;52.586;13.442;2023-04-03T04:49:45;4.00;;;2.00;;
43626;SDS011;29217;52.586;13.442;2023-04-03T04:52:12;4.90;;;2.17;;
43626;SDS011;29217;52.586;13.442;2023-04-03T04:54:38;7.97;;;2.75;;
43626;SDS011;29217;52.586;13.442;2023-04-03T04:57:03;2.47;;;1.70;;
43626;SDS011;29217;52.586;13.442;2023-04-03T04:59:29;2.63;;;1.80;;
43626;SDS011;29217;52.586;13.442;2023-04-03T05:01:55;3.35;;;2.20;;
43626;SDS011;29217;52.586;13.442;2023-04-03T05:04:20;4.80;;;1.90;;
43626;SDS011;29217;52.586;13.442;2023-04-03T05:06:46;10.05;;;3.08;;
43626;SDS011;29217;52.586;13.442;2023-04-03T05:09:11;4.85;;;2.10;;
43626;SDS011;29217;52.586;13.442;2023-04-03T05:11:37;3.40;;;2.38;;
43626;SDS011;29217;52.586;13.442;2023-04-03T05:14:03;5.10;;;2.60;;
43626;SDS011;29217;52.586;13.442;2023-04-03T05:16:31;7.35;;;2.75;;
43626;SDS011;29217;52.586;13.442;2023-04-03T05:18:57;10.07;;;4.00;;
43626;SDS011;29217;52.586;13.442;2023-04-03T05:21:23;15.20;;;8.05;;
43626;SDS011;29217;52.586;13.442;2023-04-03T05:23:51;9.40;;;4.18;;
43626;SDS011;29217;52.586;13.442;2023-04-03T05:26:16;6.13;;;3.38;;
43626;SDS011;29217;52.586;13.442;2023-04-03T05:28:42;3.15;;;2.25;;
43626;SDS011;29217;52.586;13.442;2023-04-03T05:31:08;6.30;;;2.33;;
43626;SDS011;29217;52.586;13.442;2023-04-03T05:33:33;5.57;;;1.90;;
43626;SDS011;29217;52.586;13.442;2023-04-03T05:36:05;4.07;;;2.15;;
43626;SDS011;29217;52.586;13.442;2023-04-03T05:38:31;5.85;;;3.50;;
43626;SDS011;29217;52.586;13.442;2023-04-03T05:40:57;9.30;;;2.80;;
43626;SDS011;29217;52.586;13.442;2023-04-03T05:43:23;6.55;;;2.03;;
43626;SDS011;29217;52.586;13.442;2023-04-03T05:45:49;3.00;;;2.25;;
43626;SDS011;29217;52.586;13.442;2023-04-03T05:48:16;4.80;;;2.33;;
43626;SDS011;29217;52.586;13.442;2023-04-03T05:50:41;6.32;;;2.30;;
43626;SDS011;29217;52.586;13.442;2023-04-03T05:53:08;11.50;;;2.13;;
43626;SDS011;29217;52.586;13.442;2023-04-03T05:55:40;5.22;;;1.83;;
43626;SDS011;29217;52.586;13.442;2023-04-03T05:58:05;3.90;;;2.03;;
43626;SDS011;29217;52.586;13.442;2023-04-03T06:00:31;5.28;;;2.25;;
43626;SDS011;29217;52.586;13.442;2023-04-03T06:02:57;3.78;;;2.30;;
43626;SDS011;29217;52.586;13.442;2023-04-03T06:05:22;4.88;;;2.20;;
43626;SDS011;29217;52.586;13.442;2023-04-03T06:07:48;3.60;;;2.05;;
43626;SDS011;29217;52.586;13.442;2023-04-03T06:10:14;4.45;;;2.05;;
43626;SDS011;29217;52.586;13.442;2023-04-03T06:12:40;5.47;;;2.38;;
43626;SDS011;29217;52.586;13.442;2023-04-03T06:15:06;8.30;;;2.33;;
43626;SDS011;29217;52.586;13.442;2023-04-03T06:17:34;5.78;;;2.25;;
43626;SDS011;29217;52.586;13.442;2023-04-03T06:20:01;5.28;;;1.90;;
43626;SDS011;29217;52.586;13.442;2023-04-03T06:22:28;4.13;;;2.10;;
43626;SDS011;29217;52.586;13.442;2023-04-03T06:24:55;2.80;;;1.90;;
43626;SDS011;29217;52.586;13.442;2023-04-03T06:27:21;2.80;;;1.90;;
43626;SDS011;29217;52.586;13.442;2023-04-03T06:29:46;3.97;;;1.80;;
43626;SDS011;29217;52.586;13.442;2023-04-03T06:32:13;3.75;;;1.58;;
43626;SDS011;29217;52.586;13.442;2023-04-03T06:34:39;3.22;;;2.13;;
43626;SDS011;29217;52.586;13.442;2023-04-03T06:37:05;2.88;;;1.65;;
43626;SDS011;29217;52.586;13.442;2023-04-03T06:39:31;4.22;;;1.55;;
43626;SDS011;29217;52.586;13.442;2023-04-03T06:41:57;3.55;;;1.88;;
43626;SDS011;29217;52.586;13.442;2023-04-03T06:44:23;2.53;;;1.60;;
43626;SDS011;29217;52.586;13.442;2023-04-03T06:46:48;2.70;;;1.45;;
43626;SDS011;29217;52.586;13.442;2023-04-03T06:49:14;1.70;;;1.48;;
43626;SDS011;29217;52.586;13.442;2023-04-03T06:51:40;4.38;;;1.48;;
43626;SDS011;29217;52.586;13.442;2023-04-03T06:54:06;5.97;;;1.52;;
43626;SDS011;29217;52.586;13.442;2023-04-03T06:56:33;6.95;;;1.60;;
43626;SDS011;29217;52.586;13.442;2023-04-03T06:58:59;3.70;;;1.30;;
43626;SDS011;29217;52.586;13.442;2023-04-03T07:01:26;3.08;;;1.67;;
43626;SDS011;29217;52.586;13.442;2023-04-03T07:03:53;4.05;;;1.40;;
43626;SDS011;29217;52.586;13.442;2023-04-03T07:06:20;4.00;;;1.60;;
43626;SDS011;29217;52.586;13.442;2023-04-03T07:08:46;2.63;;;1.60;;
43626;SDS011;29217;52.586;13.442;2023-04-03T07:11:14;1.75;;;1.40;;
43626;SDS011;29217;52.586;13.442;2023-04-03T07:13:40;2.75;;;1.27;;
43626;SDS011;29217;52.586;13.442;2023-04-03T07:16:06;2.47;;;1.30;;
43626;SDS011;29217;52.586;13.442;2023-04-03T07:18:33;5.05;;;1.55;;
43626;SDS011;29217;52.586;13.442;2023-04-03T07:20:59;2.80;;;1.08;;
43626;SDS011;29217;52.586;13.442;2023-04-03T07:23:25;1.38;;;1.10;;
43626;SDS011;29217;52.586;13.442;2023-04-03T07:25:51;3.72;;;1.45;;
43626;SDS011;29217;52.586;13.442;2023-04-03T07:28:17;3.90;;;1.20;;
43626;SDS011;29217;52.586;13.442;2023-04-03T07:31:17;2.90;;;1.40;;
43626;SDS011;29217;52.586;13.442;2023-04-03T07:33:38;3.08;;;1.80;;
43626;SDS011;29217;52.586;13.442;2023-04-03T07:36:05;1.23;;;1.10;;
43626;SDS011;29217;52.586;13.442;2023-04-03T07:38:32;2.00;;;1.13;;
43626;SDS011;29217;52.586;13.442;2023-04-03T07:40:58;4.90;;;1.23;;
43626;SDS011;29217;52.586;13.442;2023-04-03T07:43:24;2.60;;;1.30;;
43626;SDS011;29217;52.586;13.442;2023-04-03T07:45:50;3.05;;;1.00;;
43626;SDS011;29217;52.586;13.442;2023-04-03T07:48:17;2.28;;;1.10;;
43626;SDS011;29217;52.586;13.442;2023-04-03T07:50:44;2.67;;;1.30;;
43626;SDS011;29217;52.586;13.442;2023-04-03T07:53:10;2.65;;;1.00;;
43626;SDS011;29217;52.586;13.442;2023-04-03T07:55:36;5.50;;;1.55;;
43626;SDS011;29217;52.586;13.442;2023-04-03T07:58:08;3.40;;;1.55;;
43626;SDS011;29217;52.586;13.442;2023-04-03T08:00:35;3.83;;;1.20;;
43626;SDS011;29217;52.586;13.442;2023-04-03T08:03:01;1.20;;;1.10;;
43626;SDS011;29217;52.586;13.442;2023-04-03T08:05:27;5.80;;;1.90;;
43626;SDS011;29217;52.586;13.442;2023-04-03T08:07:52;3.20;;;1.83;;
43626;SDS011;29217;52.586;13.442;2023-04-03T08:10:18;4.45;;;1.10;;
43626;SDS011;29217;52.586;13.442;2023-04-03T08:12:45;4.50;;;1.88;;
43626;SDS011;29217;52.586;13.442;2023-04-03T08:15:12;3.83;;;1.10;;
43626;SDS011;29217;52.586;13.442;2023-04-03T08:17:37;5.32;;;1.52;;
43626;SDS011;29217;52.586;13.442;2023-04-03T08:20:06;2.88;;;1.80;;
43626;SDS011;29217;52.586;13.442;2023-04-03T08:22:33;3.92;;;1.58;;
43626;SDS011;29217;52.586;13.442;2023-04-03T08:24:59;1.73;;;1.25;;
43626;SDS011;29217;52.586;13.442;2023-04-03T08:27:26;4.97;;;1.92;;
43626;SDS011;29217;52.586;13.442;2023-04-03T08:29:51;2.38;;;1.50;;
43626;SDS011;29217;52.586;13.442;2023-04-03T08:32:17;2.47;;;1.20;;
43626;SDS011;29217;52.586;13.442;2023-04-03T08:34:43;3.33;;;1.33;;
43626;SDS011;29217;52.586;13.442;2023-04-03T08:37:09;1.80;;;1.00;;
43626;SDS011;29217;52.586;13.442;2023-04-03T08:39:35;2.55;;;1.30;;
43626;SDS011;29217;52.586;13.442;2023-04-03T08:42:03;0.88;;;0.88;;
43626;SDS011;29217;52.586;13.442;2023-04-03T08:44:55;3.22;;;1.50;;
43626;SDS011;29217;52.586;13.442;2023-04-03T08:47:28;1.33;;;1.23;;
43626;SDS011;29217;52.586;13.442;2023-04-03T08:50:14;1.73;;;1.35;;
43626;SDS011;29217;52.586;13.442;2023-04-03T08:52:44;5.07;;;1.30;;
43626;SDS011;29217;52.586;13.442;2023-04-03T08:58:02;1.20;;;1.10;;
43626;SDS011;29217;52.586;13.442;2023-04-03T09:00:34;3.15;;;1.20;;
43626;SDS011;29217;52.586;13.442;2023-04-03T09:03:14;2.50;;;1.40;;
43626;SDS011;29217;52.586;13.442;2023-04-03T09:05:44;4.22;;;1.52;;
43626;SDS011;29217;52.586;13.442;2023-04-03T09:08:26;3.15;;;1.30;;
43626;SDS011;29217;52.586;13.442;2023-04-03T09:20:02;2.85;;;1.48;;
43626;SDS011;29217;52.586;13.442;2023-04-03T09:22:07;6.82;;;2.20;;
43626;SDS011;29217;52.586;13.442;2023-04-03T09:27:35;3.20;;;2.10;;
43626;SDS011;29217;52.586;13.442;2023-04-03T09:30:01;5.43;;;2.15;;
43626;SDS011;29217;52.586;13.442;2023-04-03T09:32:30;2.50;;;1.67;;
43626;SDS011;29217;52.586;13.442;2023-04-03T09:35:04;1.63;;;1.48;;
43626;SDS011;29217;52.586;13.442;2023-04-03T09:40:28;2.35;;;1.50;;
43626;SDS011;29217;52.586;13.442;2023-04-03T09:43:00;4.55;;;1.20;;
43626;SDS011;29217;52.586;13.442;2023-04-03T09:45:29;3.72;;;1.95;;
43626;SDS011;29217;52.586;13.442;2023-04-03T09:48:04;1.90;;;1.17;;
43626;SDS011;29217;52.586;13.442;2023-04-03T09:50:31;1.58;;;1.10;;
43626;SDS011;29217;52.586;13.442;2023-04-03T09:52:58;4.45;;;1.23;;
43626;SDS011;29217;52.586;13.442;2023-04-03T09:55:28;4.45;;;2.00;;
43626;SDS011;29217;52.586;13.442;2023-04-03T09:57:55;4.07;;;2.20;;
43626;SDS011;29217;52.586;13.442;2023-04-03T10:00:28;2.22;;;1.20;;
43626;SDS011;29217;52.586;13.442;2023-04-03T10:03:01;3.72;;;1.90;;
43626;SDS011;29217;52.586;13.442;2023-04-03T10:08:19;15.95;;;2.10;;
43626;SDS011;29217;52.586;13.442;2023-04-03T10:13:57;3.28;;;1.38;;
43626;SDS011;29217;52.586;13.442;2023-04-03T10:16:35;1.23;;;1.02;;
43626;SDS011;29217;52.586;13.442;2023-04-03T10:21:51;5.03;;;1.50;;
43626;SDS011;29217;52.586;13.442;2023-04-03T10:27:14;1.83;;;1.48;;
43626;SDS011;29217;52.586;13.442;2023-04-03T10:32:19;3.90;;;1.70;;
43626;SDS011;29217;52.586;13.442;2023-04-03T10:34:46;2.35;;;1.05;;
43626;SDS011;29217;52.586;13.442;2023-04-03T10:37:27;1.80;;;1.30;;
43626;SDS011;29217;52.586;13.442;2023-04-03T10:43:10;3.20;;;1.40;;
43626;SDS011;29217;52.586;13.442;2023-04-03T10:45:48;3.08;;;1.77;;
43626;SDS011;29217;52.586;13.442;2023-04-03T10:51:24;1.10;;;1.00;;
43626;SDS011;29217;52.586;13.442;2023-04-03T10:53:54;1.30;;;1.00;;
43626;SDS011;29217;52.586;13.442;2023-04-03T10:56:31;4.97;;;1.25;;
43626;SDS011;29217;52.586;13.442;2023-04-03T10:59:25;4.57;;;0.80;;
43626;SDS011;29217;52.586;13.442;2023-04-03T11:02:03;1.95;;;1.50;;
43626;SDS011;29217;52.586;13.442;2023-04-03T11:04:34;2.22;;;1.27;;
43626;SDS011;29217;52.586;13.442;2023-04-03T11:07:14;4.10;;;1.40;;
43626;SDS011;29217;52.586;13.442;2023-04-03T11:09:46;2.38;;;1.40;;
43626;SDS011;29217;52.586;13.442;2023-04-03T11:14:50;1.67;;;1.20;;
43626;SDS011;29217;52.586;13.442;2023-04-03T11:17:21;1.13;;;1.02;;
43626;SDS011;29217;52.586;13.442;2023-04-03T11:22:27;8.30;;;1.98;;
43626;SDS011;29217;52.586;13.442;2023-04-03T11:24:59;1.45;;;1.20;;
43626;SDS011;29217;52.586;13.442;2023-04-03T11:27:38;1.73;;;1.38;;
43626;SDS011;29217;52.586;13.442;2023-04-03T11:30:57;1.73;;;1.10;;
43626;SDS011;29217;52.586;13.442;2023-04-03T11:35:57;3.15;;;1.20;;
43626;SDS011;29217;52.586;13.442;2023-04-03T11:38:36;0.80;;;0.73;;
43626;SDS011;29217;52.586;13.442;2023-04-03T11:41:07;1.67;;;0.95;;
43626;SDS011;29217;52.586;13.442;2023-04-03T11:43:39;1.55;;;1.35;;
43626;SDS011;29217;52.586;13.442;2023-04-03T11:46:07;2.92;;;1.30;;
43626;SDS011;29217;52.586;13.442;2023-04-03T11:51:37;1.60;;;1.50;;
43626;SDS011;29217;52.586;13.442;2023-04-03T11:53:51;1.52;;;1.13;;
43626;SDS011;29217;52.586;13.442;2023-04-03T12:01:55;4.38;;;0.90;;
43626;SDS011;29217;52.586;13.442;2023-04-03T12:04:24;3.97;;;1.73;;
43626;SDS011;29217;52.586;13.442;2023-04-03T12:11:58;2.75;;;1.20;;
43626;SDS011;29217;52.586;13.442;2023-04-03T12:14:25;2.42;;;1.40;;
43626;SDS011;29217;52.586;13.442;2023-04-03T12:16:54;4.93;;;1.23;;
43626;SDS011;29217;52.586;13.442;2023-04-03T12:24:28;2.20;;;1.30;;
43626;SDS011;29217;52.586;13.442;2023-04-03T12:35:17;2.05;;;1.20;;
43626;SDS011;29217;52.586;13.442;2023-04-03T12:41:11;2.45;;;1.08;;
43626;SDS011;29217;52.586;13.442;2023-04-03T12:44:01;2.97;;;1.63;;
43626;SDS011;29217;52.586;13.442;2023-04-03T12:46:39;1.63;;;1.30;;
43626;SDS011;29217;52.586;13.442;2023-04-03T12:49:14;3.42;;;1.20;;
43626;SDS011;29217;52.586;13.442;2023-04-03T12:52:00;2.67;;;1.63;;
43626;SDS011;29217;52.586;13.442;2023-04-03T12:54:37;1.88;;;1.45;;
43626;SDS011;29217;52.586;13.442;2023-04-03T12:57:39;2.03;;;1.27;;
43626;SDS011;29217;52.586;13.442;2023-04-03T12:59:58;3.47;;;1.45;;
43626;SDS011;29217;52.586;13.442;2023-04-03T13:04:56;1.40;;;1.20;;
43626;SDS011;29217;52.586;13.442;2023-04-03T13:09:59;1.33;;;1.00;;
43626;SDS011;29217;52.586;13.442;2023-04-03T13:12:49;3.35;;;1.10;;
43626;SDS011;29217;52.586;13.442;2023-04-03T13:15:40;3.35;;;1.42;;
43626;SDS011;29217;52.586;13.442;2023-04-03T13:18:30;3.22;;;1.42;;
43626;SDS011;29217;52.586;13.442;2023-04-03T13:21:07;1.45;;;1.10;;
43626;SDS011;29217;52.586;13.442;2023-04-03T13:23:40;1.15;;;1.05;;
43626;SDS011;29217;52.586;13.442;2023-04-03T13:26:10;2.17;;;1.40;;
43626;SDS011;29217;52.586;13.442;2023-04-03T13:28:36;4.32;;;1.40;;
43626;SDS011;29217;52.586;13.442;2023-04-03T13:31:06;2.80;;;1.13;;
43626;SDS011;29217;52.586;13.442;2023-04-03T13:33:35;3.45;;;1.27;;
43626;SDS011;29217;52.586;13.442;2023-04-03T13:36:17;1.77;;;1.30;;
43626;SDS011;29217;52.586;13.442;2023-04-03T13:38:45;1.35;;;1.15;;
43626;SDS011;29217;52.586;13.442;2023-04-03T13:41:25;1.75;;;1.23;;
43626;SDS011;29217;52.586;13.442;2023-04-03T13:43:55;2.63;;;1.50;;
43626;SDS011;29217;52.586;13.442;2023-04-03T13:46:23;1.95;;;1.35;;
43626;SDS011;29217;52.586;13.442;2023-04-03T13:48:53;1.95;;;1.17;;
43626;SDS011;29217;52.586;13.442;2023-04-03T13:51:22;5.60;;;1.70;;
43626;SDS011;29217;52.586;13.442;2023-04-03T13:53:50;2.05;;;1.17;;
43626;SDS011;29217;52.586;13.442;2023-04-03T14:04:18;2.65;;;1.20;;
43626;SDS011;29217;52.586;13.442;2023-04-03T14:06:44;3.72;;;1.58;;
43626;SDS011;29217;52.586;13.442;2023-04-03T14:09:11;1.30;;;1.15;;
43626;SDS011;29217;52.586;13.442;2023-04-03T14:11:37;1.40;;;1.20;;
43626;SDS011;29217;52.586;13.442;2023-04-03T14:14:06;4.32;;;1.58;;
43626;SDS011;29217;52.586;13.442;2023-04-03T14:16:38;1.33;;;0.98;;
43626;SDS011;29217;52.586;13.442;2023-04-03T14:19:06;1.02;;;0.90;;
43626;SDS011;29217;52.586;13.442;2023-04-03T14:21:32;2.25;;;1.30;;
43626;SDS011;29217;52.586;13.442;2023-04-03T14:23:58;1.90;;;1.10;;
43626;SDS011;29217;52.586;13.442;2023-04-03T14:26:24;6.05;;;1.80;;
43626;SDS011;29217;52.586;13.442;2023-04-03T14:28:53;2.45;;;1.15;;
43626;SDS011;29217;52.586;13.442;2023-04-03T14:31:20;2.08;;;1.20;;
43626;SDS011;29217;52.586;13.442;2023-04-03T14:33:47;3.72;;;1.10;;
43626;SDS011;29217;52.586;13.442;2023-04-03T14:36:23;2.45;;;1.20;;
43626;SDS011;29217;52.586;13.442;2023-04-03T14:38:52;1.20;;;1.10;;
43626;SDS011;29217;52.586;13.442;2023-04-03T14:41:19;4.43;;;1.25;;
43626;SDS011;29217;52.586;13.442;2023-04-03T14:43:47;3.90;;;1.10;;
43626;SDS011;29217;52.586;13.442;2023-04-03T14:46:16;1.10;;;1.00;;
43626;SDS011;29217;52.586;13.442;2023-04-03T14:48:43;2.60;;;1.23;;
43626;SDS011;29217;52.586;13.442;2023-04-03T14:51:13;3.33;;;1.25;;
43626;SDS011;29217;52.586;13.442;2023-04-03T14:53:40;2.22;;;1.00;;
43626;SDS011;29217;52.586;13.442;2023-04-03T14:58:41;2.10;;;1.40;;
43626;SDS011;29217;52.586;13.442;2023-04-03T15:01:08;3.55;;;1.30;;
43626;SDS011;29217;52.586;13.442;2023-04-03T15:03:35;3.85;;;1.30;;
43626;SDS011;29217;52.586;13.442;2023-04-03T15:06:00;2.38;;;1.40;;
43626;SDS011;29217;52.586;13.442;2023-04-03T15:08:26;3.20;;;1.23;;
43626;SDS011;29217;52.586;13.442;2023-04-03T15:10:56;1.58;;;1.08;;
43626;SDS011;29217;52.586;13.442;2023-04-03T15:13:22;3.03;;;1.00;;
43626;SDS011;29217;52.586;13.442;2023-04-03T15:15:49;2.38;;;1.20;;
43626;SDS011;29217;52.586;13.442;2023-04-03T15:18:18;3.13;;;1.00;;
43626;SDS011;29217;52.586;13.442;2023-04-03T15:20:46;4.13;;;1.70;;
43626;SDS011;29217;52.586;13.442;2023-04-03T15:23:13;4.50;;;1.50;;
43626;SDS011;29217;52.586;13.442;2023-04-03T15:25:40;2.10;;;1.25;;
43626;SDS011;29217;52.586;13.442;2023-04-03T15:28:55;2.80;;;1.50;;
43626;SDS011;29217;52.586;13.442;2023-04-03T15:31:04;2.47;;;1.30;;
43626;SDS011;29217;52.586;13.442;2023-04-03T15:33:31;3.58;;;1.40;;
43626;SDS011;29217;52.586;13.442;2023-04-03T15:35:57;1.98;;;1.50;;
43626;SDS011;29217;52.586;13.442;2023-04-03T15:38:23;2.42;;;1.38;;
43626;SDS011;29217;52.586;13.442;2023-04-03T15:40:49;5.35;;;2.25;;
43626;SDS011;29217;52.586;13.442;2023-04-03T15:43:15;2.63;;;1.52;;
43626;SDS011;29217;52.586;13.442;2023-04-03T15:45:41;2.67;;;1.55;;
43626;SDS011;29217;52.586;13.442;2023-04-03T15:48:08;3.28;;;1.70;;
43626;SDS011;29217;52.586;13.442;2023-04-03T15:50:34;3.17;;;1.67;;
43626;SDS011;29217;52.586;13.442;2023-04-03T15:53:00;4.47;;;1.50;;
43626;SDS011;29217;52.586;13.442;2023-04-03T15:55:27;3.60;;;1.75;;
43626;SDS011;29217;52.586;13.442;2023-04-03T15:57:55;1.83;;;1.23;;
43626;SDS011;29217;52.586;13.442;2023-04-03T16:00:22;2.28;;;1.35;;
43626;SDS011;29217;52.586;13.442;2023-04-03T16:02:48;2.63;;;1.40;;
43626;SDS011;29217;52.586;13.442;2023-04-03T16:05:18;5.45;;;1.58;;
43626;SDS011;29217;52.586;13.442;2023-04-03T16:07:44;3.47;;;1.73;;
43626;SDS011;29217;52.586;13.442;2023-04-03T16:10:11;4.55;;;1.83;;
43626;SDS011;29217;52.586;13.442;2023-04-03T16:12:37;3.63;;;1.60;;
43626;SDS011;29217;52.586;13.442;2023-04-03T16:15:04;1.50;;;1.35;;
43626;SDS011;29217;52.586;13.442;2023-04-03T16:17:31;1.85;;;1.30;;
43626;SDS011;29217;52.586;13.442;2023-04-03T16:19:58;2.50;;;1.30;;